createdAt,value
2023-09-13T00:00:24.295Z,20.58
2023-09-13T00:03:23.869Z,20.58
2023-09-13T00:05:50.577Z,20.61
2023-09-13T00:08:17.632Z,20.59
2023-09-13T00:10:46.946Z,20.58
2023-09-13T00:13:17.373Z,20.56
2023-09-13T00:15:50.237Z,20.52
2023-09-13T00:18:17.215Z,20.46
2023-09-13T00:20:44.781Z,20.50
2023-09-13T00:23:11.800Z,20.51
2023-09-13T00:25:38.480Z,20.51
2023-09-13T00:28:05.637Z,20.52
2023-09-13T00:30:33.108Z,20.53
2023-09-13T00:33:00.299Z,20.53
2023-09-13T00:35:29.749Z,20.54
2023-09-13T00:37:56.400Z,20.56
2023-09-13T00:40:23.075Z,20.51
2023-09-13T00:42:49.764Z,20.47
2023-09-13T00:45:16.496Z,20.44
2023-09-13T00:47:45.173Z,20.42
2023-09-13T00:50:16.174Z,20.40
2023-09-13T00:52:46.044Z,20.39
2023-09-13T00:55:15.766Z,20.37
2023-09-13T00:57:43.820Z,20.34
2023-09-13T01:00:12.238Z,20.33
2023-09-13T01:02:42.820Z,20.30
2023-09-13T01:05:10.612Z,20.25
2023-09-13T01:07:44.076Z,20.19
2023-09-13T01:10:11.601Z,20.13
2023-09-13T01:12:38.944Z,20.11
2023-09-13T01:15:09.933Z,20.08
2023-09-13T01:17:40.451Z,20.11
2023-09-13T01:20:12.471Z,20.09
2023-09-13T01:22:54.068Z,20.08
2023-09-13T01:25:36.296Z,20.05
2023-09-13T01:28:11.830Z,20.00
2023-09-13T01:30:39.747Z,19.99
2023-09-13T01:33:06.925Z,19.97
2023-09-13T01:35:33.711Z,19.93
2023-09-13T01:38:00.474Z,19.90
2023-09-13T01:40:31.196Z,19.89
2023-09-13T01:43:01.189Z,19.87
2023-09-13T01:45:29.575Z,19.87
2023-09-13T01:48:06.781Z,19.86
2023-09-13T01:50:38.849Z,19.82
2023-09-13T01:53:05.504Z,19.79
2023-09-13T01:55:36.156Z,19.79
2023-09-13T01:58:03.585Z,19.78
2023-09-13T02:00:30.470Z,19.80
2023-09-13T02:02:57.260Z,19.76
2023-09-13T02:05:24.055Z,19.69
2023-09-13T02:07:50.637Z,19.65
2023-09-13T02:10:17.214Z,19.61
2023-09-13T02:12:43.968Z,19.60
2023-09-13T02:15:11.190Z,19.59
2023-09-13T02:17:38.108Z,19.59
2023-09-13T02:20:14.271Z,19.59
2023-09-13T02:22:40.949Z,19.58
2023-09-13T02:25:10.860Z,19.59
2023-09-13T02:27:37.675Z,19.58
2023-09-13T02:30:06.275Z,19.59
2023-09-13T02:32:33.156Z,19.58
2023-09-13T02:35:00.243Z,19.59
2023-09-13T02:37:29.251Z,19.57
2023-09-13T02:39:56.277Z,19.58
2023-09-13T02:42:23.078Z,19.60
2023-09-13T02:44:51.440Z,19.63
2023-09-13T02:47:19.528Z,19.61
2023-09-13T02:49:48.352Z,19.58
2023-09-13T03:07:53.070Z,19.68
2023-09-13T03:10:20.516Z,19.66
2023-09-13T03:12:47.432Z,19.67
2023-09-13T03:15:14.986Z,19.66
2023-09-13T03:17:43.842Z,19.66
2023-09-13T03:20:11.338Z,19.65
2023-09-13T03:22:38.200Z,19.65
2023-09-13T03:36:21.984Z,19.60
2023-09-13T03:38:49.237Z,19.62
2023-09-13T03:41:20.378Z,19.61
2023-09-13T04:05:52.576Z,19.41
2023-09-13T04:08:19.900Z,19.38
2023-09-13T04:10:46.999Z,19.36
2023-09-13T04:13:15.398Z,19.34
2023-09-13T04:15:45.094Z,19.29
2023-09-13T04:18:13.145Z,19.28
2023-09-13T04:20:40.300Z,19.26
2023-09-13T04:23:08.547Z,19.25
2023-09-13T04:25:38.248Z,19.23
2023-09-13T04:28:05.316Z,19.22
2023-09-13T04:34:51.947Z,19.19
2023-09-13T04:37:19.341Z,19.20
2023-09-13T04:39:47.911Z,19.18
2023-09-13T04:42:15.751Z,19.19
2023-09-13T04:44:42.849Z,19.16
2023-09-13T04:47:09.757Z,19.14
2023-09-13T05:04:00.446Z,19.09
2023-09-13T05:06:28.679Z,19.09
2023-09-13T05:35:10.092Z,18.90
2023-09-13T05:37:37.071Z,18.89
2023-09-13T05:40:07.873Z,18.89
2023-09-13T05:45:21.938Z,18.91
2023-09-13T05:49:13.049Z,18.93
2023-09-13T06:02:56.290Z,18.58
2023-09-13T06:05:23.035Z,18.35
2023-09-13T06:07:51.815Z,18.25
2023-09-13T06:10:18.965Z,18.14
2023-09-13T06:12:46.515Z,18.10
2023-09-13T06:15:13.307Z,17.99
2023-09-13T06:17:40.380Z,17.94
2023-09-13T06:20:08.242Z,17.84
2023-09-13T06:22:35.789Z,17.81
2023-09-13T06:25:07.885Z,17.82
2023-09-13T06:27:38.493Z,17.63
2023-09-13T06:30:05.694Z,17.61
2023-09-13T06:32:41.877Z,17.50
2023-09-13T06:35:16.017Z,17.28
2023-09-13T06:37:47.156Z,17.21
2023-09-13T06:40:16.702Z,17.24
2023-09-13T06:45:24.163Z,17.15
2023-09-13T06:47:58.175Z,17.13
2023-09-13T06:50:44.830Z,17.18
2023-09-13T06:55:49.032Z,17.30
2023-09-13T06:58:21.557Z,17.25
2023-09-13T07:01:13.612Z,17.09
2023-09-13T07:03:39.442Z,17.08
2023-09-13T07:06:07.315Z,17.05
2023-09-13T07:08:35.854Z,17.04
2023-09-13T07:11:05.803Z,17.13
2023-09-13T07:13:32.954Z,17.29
2023-09-13T07:16:00.079Z,17.34
2023-09-13T07:18:27.794Z,17.42
2023-09-13T07:20:54.975Z,17.47
2023-09-13T07:23:22.410Z,17.56
2023-09-13T07:25:49.659Z,17.72
2023-09-13T07:28:18.433Z,17.90
2023-09-13T07:30:49.172Z,17.89
2023-09-13T07:33:16.068Z,17.97
2023-09-13T07:35:42.934Z,18.05
2023-09-13T07:38:12.428Z,18.03
2023-09-13T07:40:40.851Z,17.97
2023-09-13T07:43:08.786Z,18.10
2023-09-13T07:45:39.027Z,18.08
2023-09-13T07:48:06.237Z,18.17
2023-09-13T07:50:39.877Z,18.22
2023-09-13T08:01:21.757Z,18.50
2023-09-13T08:20:34.954Z,19.18
2023-09-13T08:23:12.669Z,19.27
2023-09-13T08:25:53.377Z,19.37
2023-09-13T08:31:01.451Z,19.49
2023-09-13T08:33:28.658Z,19.46
2023-09-13T08:35:55.842Z,19.56
2023-09-13T08:38:32.186Z,19.63
2023-09-13T08:41:19.050Z,19.73
2023-09-13T08:43:54.460Z,19.80
2023-09-13T08:46:27.112Z,19.89
2023-09-13T08:48:56.304Z,20.01
2023-09-13T08:51:23.886Z,20.17
2023-09-13T08:53:55.014Z,20.12
2023-09-13T08:56:22.715Z,20.19
2023-09-13T08:58:50.282Z,20.27
2023-09-13T09:01:20.740Z,20.32
2023-09-13T09:03:49.228Z,20.12
2023-09-13T09:06:21.216Z,20.12
2023-09-13T09:08:51.262Z,20.19
2023-09-13T09:11:23.208Z,20.26
2023-09-13T09:13:51.528Z,20.11
2023-09-13T09:16:19.403Z,20.04
2023-09-13T09:18:47.393Z,20.07
2023-09-13T09:21:15.194Z,19.98
2023-09-13T09:23:45.975Z,20.00
2023-09-13T09:26:14.481Z,20.14
2023-09-13T09:28:43.485Z,20.13
2023-09-13T09:31:35.087Z,20.13
2023-09-13T09:34:04.511Z,20.23
2023-09-13T09:36:36.232Z,20.19
2023-09-13T09:39:03.936Z,20.05
2023-09-13T09:41:38.420Z,20.01
2023-09-13T09:44:06.354Z,20.10
2023-09-13T09:46:35.433Z,20.12
2023-09-13T09:49:03.085Z,19.98
2023-09-13T09:54:15.404Z,20.29
2023-09-13T09:56:42.192Z,20.50
2023-09-13T09:59:09.162Z,20.37
2023-09-13T10:01:39.242Z,20.50
2023-09-13T10:04:10.943Z,20.44
2023-09-13T10:06:37.655Z,20.51
2023-09-13T10:09:08.307Z,20.55
2023-09-13T10:11:35.998Z,20.67
2023-09-13T10:14:06.061Z,20.84
2023-09-13T10:16:33.951Z,20.64
2023-09-13T10:19:04.689Z,20.65
2023-09-13T10:24:08.133Z,20.75
2023-09-13T10:26:36.256Z,20.84
2023-09-13T10:29:13.599Z,20.96
2023-09-13T10:31:46.470Z,20.86
2023-09-13T10:34:26.923Z,20.63
2023-09-13T10:37:06.146Z,20.70
2023-09-13T10:39:45.635Z,20.76
2023-09-13T10:42:13.200Z,20.84
2023-09-13T10:44:41.323Z,20.81
2023-09-13T10:47:09.511Z,20.70
2023-09-13T10:49:43.382Z,20.60
2023-09-13T10:52:11.649Z,20.72
2023-09-13T10:54:40.766Z,20.78
2023-09-13T10:57:12.999Z,20.84
2023-09-13T10:59:41.355Z,21.01
2023-09-13T11:02:08.883Z,21.12
2023-09-13T11:04:36.580Z,21.26
2023-09-13T11:07:06.115Z,21.38
2023-09-13T11:09:34.314Z,21.24
2023-09-13T11:12:01.217Z,20.71
2023-09-13T11:14:30.215Z,20.47
2023-09-13T11:17:09.826Z,20.27
2023-09-13T11:19:36.960Z,20.36
2023-09-13T11:22:04.958Z,20.25
2023-09-13T11:24:55.037Z,20.01
2023-09-13T11:27:25.455Z,20.01
2023-09-13T11:29:59.262Z,19.97
2023-09-13T11:32:30.794Z,20.05
2023-09-13T11:35:02.647Z,20.04
2023-09-13T11:37:31.855Z,20.28
2023-09-13T11:40:13.790Z,20.27
2023-09-13T11:43:02.636Z,20.14
2023-09-13T11:45:34.660Z,20.03
2023-09-13T11:48:06.133Z,19.88
2023-09-13T11:50:50.150Z,19.92
2023-09-13T11:53:21.253Z,19.86
2023-09-13T11:56:10.602Z,19.93
2023-09-13T11:58:51.752Z,19.94
2023-09-13T12:01:27.930Z,20.02
2023-09-13T12:06:33.318Z,20.11
2023-09-13T12:09:05.195Z,20.25
2023-09-13T12:11:36.514Z,20.40
2023-09-13T12:14:11.944Z,20.51
2023-09-13T12:16:40.507Z,20.66
2023-09-13T12:19:08.398Z,20.90
2023-09-13T12:21:35.701Z,20.99
2023-09-13T12:24:04.353Z,21.07
2023-09-13T12:26:34.621Z,21.14
2023-09-13T12:29:03.220Z,21.12
2023-09-13T12:31:29.984Z,21.13
2023-09-13T12:34:06.635Z,20.97
2023-09-13T12:36:40.921Z,21.05
2023-09-13T12:39:19.974Z,21.21
2023-09-13T12:41:47.959Z,21.29
2023-09-13T12:44:18.389Z,21.19
2023-09-13T12:46:45.260Z,21.32
2023-09-13T12:49:12.969Z,21.11
2023-09-13T12:51:41.382Z,21.11
2023-09-13T12:54:14.526Z,21.19
2023-09-13T12:56:41.781Z,21.19
2023-09-13T12:59:09.316Z,21.02
2023-09-13T13:01:37.126Z,20.91
2023-09-13T13:04:12.130Z,20.99
2023-09-13T13:07:05.034Z,21.13
2023-09-13T13:09:39.562Z,21.16
2023-09-13T13:12:06.845Z,20.94
2023-09-13T13:14:33.840Z,21.03
2023-09-13T13:17:02.244Z,21.18
2023-09-13T13:22:11.719Z,21.26
2023-09-13T13:24:43.598Z,21.28
2023-09-13T13:27:10.545Z,21.33
2023-09-13T13:29:43.937Z,21.42
2023-09-13T13:32:10.672Z,21.49
2023-09-13T13:34:40.504Z,21.41
2023-09-13T13:37:12.524Z,21.43
2023-09-13T13:39:39.719Z,21.50
2023-09-13T13:42:06.785Z,21.58
2023-09-13T13:44:37.961Z,21.66
2023-09-13T13:47:05.167Z,21.68
2023-09-13T13:49:31.777Z,21.74
2023-09-13T13:51:58.431Z,21.72
2023-09-13T13:54:25.285Z,21.58
2023-09-13T13:56:52.925Z,21.56
2023-09-13T13:59:19.591Z,21.60
2023-09-13T14:01:46.642Z,21.55
2023-09-13T14:04:13.718Z,21.39
2023-09-13T14:06:47.333Z,21.42
2023-09-13T14:09:16.588Z,21.51
2023-09-13T14:11:43.577Z,21.63
2023-09-13T14:14:16.230Z,21.71
2023-09-13T14:16:45.418Z,21.52
2023-09-13T14:19:13.939Z,21.65
2023-09-13T14:21:41.036Z,21.75
2023-09-13T14:24:08.909Z,21.72
2023-09-13T14:26:36.544Z,21.65
2023-09-13T14:29:03.562Z,21.77
2023-09-13T14:31:37.404Z,21.93
2023-09-13T14:34:06.446Z,21.96
2023-09-13T14:36:33.616Z,21.99
2023-09-13T14:39:00.415Z,22.09
2023-09-13T14:41:27.201Z,22.08
2023-09-13T14:43:53.820Z,22.16
2023-09-13T14:46:20.558Z,22.24
2023-09-13T14:48:53.209Z,22.34
2023-09-13T14:51:20.262Z,22.28
2023-09-13T14:53:47.173Z,22.15
2023-09-13T14:56:13.789Z,22.10
2023-09-13T14:58:40.475Z,22.19
2023-09-13T15:01:07.144Z,22.22
2023-09-13T15:03:37.733Z,22.24
2023-09-13T15:06:05.148Z,22.29
2023-09-13T15:08:31.796Z,22.32
2023-09-13T15:10:58.588Z,22.39
2023-09-13T15:13:25.395Z,22.49
2023-09-13T15:15:52.932Z,22.39
2023-09-13T15:18:20.113Z,22.31
2023-09-13T15:20:47.912Z,22.16
2023-09-13T15:23:14.640Z,22.18
2023-09-13T15:25:44.389Z,22.04
2023-09-13T15:28:11.266Z,21.95
2023-09-13T15:30:38.302Z,22.00
2023-09-13T15:33:07.338Z,21.96
2023-09-13T15:35:34.479Z,21.96
2023-09-13T15:38:07.439Z,21.81
2023-09-13T15:40:34.308Z,21.78
2023-09-13T15:43:06.018Z,21.85
2023-09-13T15:45:33.799Z,21.87
2023-09-13T15:48:00.789Z,21.95
2023-09-13T15:50:28.023Z,21.98
2023-09-13T15:52:54.956Z,21.93
2023-09-13T15:55:21.960Z,21.77
2023-09-13T15:57:58.840Z,21.73
2023-09-13T16:00:25.678Z,21.55
2023-09-13T16:02:52.444Z,21.50
2023-09-13T16:05:19.277Z,21.55
2023-09-13T16:07:46.073Z,21.58
2023-09-13T16:10:12.849Z,21.59
2023-09-13T16:12:40.652Z,21.49
2023-09-13T16:15:09.829Z,21.33
2023-09-13T16:17:37.121Z,21.37
2023-09-13T16:20:04.555Z,21.31
2023-09-13T16:22:31.130Z,21.28
2023-09-13T16:24:57.635Z,21.15
2023-09-13T16:27:24.292Z,20.96
2023-09-13T16:29:50.883Z,20.87
2023-09-13T16:32:18.941Z,20.59
2023-09-13T16:34:45.593Z,20.67
2023-09-13T16:37:14.592Z,20.66
2023-09-13T16:39:42.091Z,20.60
2023-09-13T16:42:09.432Z,20.44
2023-09-13T16:44:38.351Z,20.45
2023-09-13T16:47:05.212Z,20.39
2023-09-13T16:49:32.061Z,20.37
2023-09-13T16:51:59.339Z,20.26
2023-09-13T16:54:29.144Z,20.15
2023-09-13T16:57:05.945Z,20.10
2023-09-13T16:59:32.707Z,19.97
2023-09-13T17:01:59.290Z,20.07
2023-09-13T17:04:33.893Z,20.11
2023-09-13T17:07:07.970Z,20.18
2023-09-13T17:09:34.877Z,20.16
2023-09-13T17:12:02.591Z,20.05
2023-09-13T17:14:29.498Z,20.04
2023-09-13T17:17:01.431Z,19.87
2023-09-13T17:19:28.148Z,19.82
2023-09-13T17:21:55.127Z,19.75
2023-09-13T17:24:21.857Z,19.76
2023-09-13T17:26:51.133Z,19.86
2023-09-13T17:29:23.462Z,19.86
2023-09-13T17:31:50.035Z,19.89
2023-09-13T17:34:16.813Z,19.97
2023-09-13T17:36:43.457Z,19.81
2023-09-13T17:39:11.506Z,19.75
2023-09-13T17:41:40.528Z,19.66
2023-09-13T17:44:07.324Z,19.69
2023-09-13T17:46:34.346Z,19.71
2023-09-13T17:49:02.131Z,19.77
2023-09-13T17:51:29.254Z,19.81
2023-09-13T17:53:57.652Z,19.70
2023-09-13T17:56:24.742Z,19.63
2023-09-13T17:58:51.422Z,19.54
2023-09-13T18:01:18.292Z,19.54
2023-09-13T18:03:45.253Z,19.46
2023-09-13T18:06:12.094Z,19.37
2023-09-13T18:08:38.833Z,19.32
2023-09-13T18:11:05.764Z,19.27
2023-09-13T18:13:32.651Z,19.16
2023-09-13T18:15:59.795Z,19.09
2023-09-13T18:18:32.384Z,19.02
2023-09-13T18:21:00.582Z,18.99
2023-09-13T18:23:28.355Z,18.99
2023-09-13T18:25:55.062Z,18.97
2023-09-13T18:28:21.904Z,18.96
2023-09-13T18:30:49.206Z,18.93
2023-09-13T18:33:16.128Z,18.94
2023-09-13T18:35:43.011Z,19.00
2023-09-13T18:38:09.741Z,19.06
2023-09-13T18:40:37.564Z,19.10
2023-09-13T18:43:05.451Z,19.14
2023-09-13T18:45:38.092Z,19.17
2023-09-13T18:48:05.933Z,19.15
2023-09-13T18:50:33.989Z,19.18
2023-09-13T18:53:00.631Z,19.16
2023-09-13T18:55:27.368Z,19.16
2023-09-13T18:57:53.995Z,19.18
2023-09-13T19:00:20.799Z,19.19
2023-09-13T19:02:50.551Z,19.19
2023-09-13T19:05:17.434Z,19.19
2023-09-13T19:07:49.512Z,19.17
2023-09-13T19:10:16.113Z,19.14
2023-09-13T19:12:42.945Z,19.11
2023-09-13T19:15:10.262Z,19.11
2023-09-13T19:17:37.180Z,19.08
2023-09-13T19:20:04.577Z,19.06
2023-09-13T19:22:31.458Z,19.01
2023-09-13T19:24:58.275Z,19.03
2023-09-13T19:27:25.187Z,19.00
2023-09-13T19:29:54.894Z,18.98
2023-09-13T19:32:24.994Z,18.99
2023-09-13T19:34:51.685Z,18.95
2023-09-13T19:37:20.651Z,18.98
2023-09-13T19:39:47.599Z,18.93
2023-09-13T19:42:14.400Z,18.93
2023-09-13T19:44:41.229Z,18.93
2023-09-13T19:47:08.075Z,18.92
2023-09-13T19:49:34.913Z,18.89
2023-09-13T19:52:01.589Z,18.86
2023-09-13T19:54:29.045Z,18.82
2023-09-13T19:56:59.153Z,18.82
2023-09-13T19:59:25.866Z,18.80
2023-09-13T20:01:52.649Z,18.77
2023-09-13T20:04:19.492Z,18.73
2023-09-13T20:06:46.202Z,18.68
2023-09-13T20:09:13.010Z,18.59
2023-09-13T20:11:42.633Z,18.53
2023-09-13T20:14:09.248Z,18.44
2023-09-13T20:16:35.817Z,18.36
2023-09-13T20:19:02.403Z,18.28
2023-09-13T20:21:28.995Z,18.17
2023-09-13T20:23:55.781Z,18.08
2023-09-13T20:26:24.821Z,18.00
2023-09-13T20:28:51.479Z,17.93
2023-09-13T20:31:22.580Z,17.82
2023-09-13T20:33:49.221Z,17.71
2023-09-13T20:36:21.481Z,17.60
2023-09-13T20:38:48.281Z,17.49
2023-09-13T20:41:16.290Z,17.35
2023-09-13T20:43:43.020Z,17.26
2023-09-13T20:46:09.750Z,17.16
2023-09-13T20:48:36.841Z,17.08
2023-09-13T20:51:05.330Z,17.00
2023-09-13T20:53:34.789Z,16.97
2023-09-13T20:56:01.842Z,16.97
2023-09-13T20:58:28.557Z,16.96
2023-09-13T21:00:55.496Z,16.96
2023-09-13T21:03:22.169Z,16.94
2023-09-13T21:05:50.047Z,16.93
2023-09-13T21:08:16.698Z,16.90
2023-09-13T21:10:43.336Z,16.88
2023-09-13T21:13:10.456Z,16.83
2023-09-13T21:15:38.562Z,16.78
2023-09-13T21:18:05.753Z,16.75
2023-09-13T21:20:32.366Z,16.76
2023-09-13T21:22:59.059Z,16.74
2023-09-13T21:25:25.701Z,16.66
2023-09-13T21:27:52.434Z,16.56
2023-09-13T21:30:19.494Z,16.48
2023-09-13T21:32:46.209Z,16.42
2023-09-13T21:35:13.009Z,16.38
2023-09-13T21:37:39.718Z,16.36
2023-09-13T21:40:08.800Z,16.34
2023-09-13T21:42:38.244Z,16.29
2023-09-13T21:45:07.502Z,16.25
2023-09-13T21:47:34.589Z,16.21
2023-09-13T21:50:01.216Z,16.19
2023-09-13T21:52:28.044Z,16.18
2023-09-13T21:54:56.376Z,16.24
2023-09-13T21:57:27.878Z,16.29
2023-09-13T21:59:54.881Z,16.29
2023-09-13T22:02:21.594Z,16.31
2023-09-13T22:04:48.234Z,16.34
2023-09-13T22:07:17.949Z,16.33
2023-09-13T22:09:45.011Z,16.34
2023-09-13T22:12:11.847Z,16.34
2023-09-13T22:14:38.501Z,16.33
2023-09-13T22:17:05.109Z,16.33
2023-09-13T22:19:31.868Z,16.32
2023-09-13T22:21:58.489Z,16.31
2023-09-13T22:24:26.046Z,16.30
2023-09-13T22:26:53.271Z,16.29
2023-09-13T22:29:20.055Z,16.28
2023-09-13T22:31:46.711Z,16.26
2023-09-13T22:34:13.372Z,16.25
2023-09-13T22:36:39.974Z,16.23
2023-09-13T22:39:09.504Z,16.18
2023-09-13T22:41:41.267Z,16.14
2023-09-13T22:44:08.191Z,16.13
2023-09-13T22:46:34.950Z,16.13
2023-09-13T22:49:01.756Z,16.09
2023-09-13T22:51:28.648Z,16.08
2023-09-13T22:53:57.248Z,16.06
2023-09-13T22:56:24.222Z,16.05
2023-09-13T22:58:50.876Z,16.03
2023-09-13T23:01:17.756Z,16.02
2023-09-13T23:03:46.615Z,16.02
2023-09-13T23:06:16.924Z,16.02
2023-09-13T23:08:43.564Z,15.99
2023-09-13T23:11:10.126Z,15.98
2023-09-13T23:13:37.025Z,15.98
2023-09-13T23:16:06.524Z,15.96
2023-09-13T23:18:34.742Z,15.90
2023-09-13T23:21:02.748Z,15.87
2023-09-13T23:23:29.591Z,15.85
2023-09-13T23:26:04.038Z,15.84
2023-09-13T23:28:31.089Z,15.84
2023-09-13T23:31:12.521Z,15.84
2023-09-13T23:33:42.225Z,15.83
2023-09-13T23:36:10.463Z,15.85
2023-09-13T23:38:39.029Z,15.83
2023-09-13T23:41:12.419Z,15.83
2023-09-13T23:43:41.226Z,15.83
2023-09-13T23:46:09.130Z,15.82
2023-09-13T23:48:37.912Z,15.81
2023-09-13T23:51:06.243Z,15.80
2023-09-13T23:53:34.535Z,15.78
2023-09-13T23:56:01.630Z,15.76
2023-09-13T23:58:28.361Z,15.73
